Terminal Aerodrome Forecast
Issued by NWS

Home | Current Version | Previous Version | Text Only | Print | Product List | Glossary On
Versions: 1 2 3 4 5 6 7 8 9 10 11 12 13 14 15 16
589
FTUS43 KLSX 222320
TAFSUS
TAF
KSUS 222320Z 2300/2324 25008KT P6SM FEW050
     FM230200 26004KT P6SM VCTS SCT050CB
      TEMPO 2302/2304 3SM TSRA OVC025CB
     FM230500 25004KT P6SM BKN050
     FM231200 31004KT P6SM BKN050
     FM231900 VRB03KT P6SM SCT200=

USA.gov is the U.S. government's official web portal to all federal, state and local government web resources and services.